Time;durP1;ratioP1;P1;durP2;ratioP2;P2;SDS_P1;SDS_P2;PMS_P1;PMS_P2;Temp;Humidity;BMP_temperature;BMP_pressure;BME280_temperature;BME280_humidity;BME280_pressure;Samples;Min_cycle;Max_cycle;Signal;HPM_P1;HPM_P2
2023/09/20 00:01:26;;;;;;;2.15;1.13;;;12.80;99.90;;;;;;5036578;28;20021;-77
2023/09/20 00:03:52;;;;;;;2.92;1.17;;;12.80;99.90;;;;;;5036581;28;20022;-76
2023/09/20 00:06:17;;;;;;;2.70;0.95;;;12.70;99.90;;;;;;5036372;28;20107;-77
2023/09/20 00:08:44;;;;;;;2.60;1.40;;;12.80;99.90;;;;;;5036300;28;20063;-76
2023/09/20 00:11:15;;;;;;;3.05;1.23;;;12.80;99.90;;;;;;5036413;28;20033;-76
2023/09/20 00:13:41;;;;;;;;;;;12.70;99.90;;;;;;5036965;28;20421;-77
2023/09/20 00:16:07;;;;;;;4.22;0.90;;;12.60;99.90;;;;;;5036547;28;19944;-77
2023/09/20 00:18:34;;;;;;;2.10;1.10;;;12.50;99.90;;;;;;5036320;28;20466;-77
2023/09/20 00:21:01;;;;;;;1.75;1.00;;;12.40;99.90;;;;;;5036262;28;20021;-77
2023/09/20 00:23:27;;;;;;;1.90;0.95;;;12.40;99.90;;;;;;5035940;28;20048;-77
2023/09/20 00:25:53;;;;;;;3.00;0.80;;;12.40;99.90;;;;;;5035708;28;20021;-77
2023/09/20 00:28:19;;;;;;;2.03;0.90;;;12.40;99.90;;;;;;5036250;28;20064;-77
2023/09/20 00:30:47;;;;;;;2.00;0.88;;;12.40;99.90;;;;;;5036138;28;20040;-77
2023/09/20 00:33:14;;;;;;;3.63;1.23;;;12.40;99.90;;;;;;5036057;28;20034;-77
2023/09/20 00:35:39;;;;;;;3.47;1.40;;;12.40;99.90;;;;;;5022462;28;20069;-77
2023/09/20 00:38:06;;;;;;;4.85;1.80;;;12.50;99.90;;;;;;5034490;28;20064;-77
2023/09/20 00:40:37;;;;;;;4.22;1.52;;;12.40;99.90;;;;;;5035230;28;20026;-77
2023/09/20 00:43:08;;;;;;;4.47;1.30;;;12.40;99.90;;;;;;5033940;28;20405;-77
2023/09/20 00:45:36;;;;;;;2.30;1.40;;;12.40;99.90;;;;;;5035782;28;20033;-77
2023/09/20 00:48:03;;;;;;;2.30;1.15;;;12.30;99.90;;;;;;5035935;28;20029;-77
2023/09/20 00:50:31;;;;;;;4.05;2.33;;;12.30;99.90;;;;;;5034217;28;20040;-76
2023/09/20 00:52:58;;;;;;;3.92;2.50;;;12.30;99.90;;;;;;5018167;28;20029;-77
2023/09/20 00:55:26;;;;;;;5.07;2.10;;;12.10;99.90;;;;;;5017685;28;20033;-77
2023/09/20 00:57:54;;;;;;;3.78;1.80;;;12.10;99.90;;;;;;5025308;28;20034;-77
2023/09/20 01:00:29;;;;;;;6.45;3.20;;;12.10;99.90;;;;;;5035846;28;20034;-77
2023/09/20 01:02:57;;;;;;;4.00;2.45;;;12.10;99.90;;;;;;5035744;28;20109;-77
2023/09/20 01:05:25;;;;;;;4.15;1.52;;;12.20;99.90;;;;;;5022942;28;20029;-77
2023/09/20 01:07:56;;;;;;;2.83;1.30;;;12.10;99.90;;;;;;5035202;28;20032;-77
2023/09/20 01:10:24;;;;;;;1.48;0.80;;;12.10;99.90;;;;;;5032560;28;20473;-78
2023/09/20 01:13:09;;;;;;;2.17;0.90;;;12.10;99.90;;;;;;5037818;28;20087;-77
2023/09/20 01:15:36;;;;;;;2.10;1.00;;;12.10;99.90;;;;;;5040330;28;20064;-78
2023/09/20 01:18:04;;;;;;;1.15;0.80;;;12.10;99.90;;;;;;5041131;28;20037;-78
2023/09/20 01:20:32;;;;;;;5.55;1.23;;;12.10;99.90;;;;;;5040907;28;20017;-78
2023/09/20 01:22:58;;;;;;;2.75;1.10;;;12.10;99.90;;;;;;5032615;28;20030;-78
2023/09/20 01:25:35;;;;;;;2.30;1.10;;;12.10;99.90;;;;;;5041798;28;20025;-78
2023/09/20 01:28:06;;;;;;;3.58;1.15;;;12.10;99.90;;;;;;5040819;28;20126;-78
2023/09/20 01:30:36;;;;;;;1.38;0.70;;;12.10;99.90;;;;;;5037700;28;20021;-77
2023/09/20 01:33:05;;;;;;;1.45;0.80;;;12.10;99.90;;;;;;5032697;28;20058;-78
2023/09/20 01:35:31;;;;;;;4.65;1.10;;;12.10;99.90;;;;;;5021261;28;20489;-78
2023/09/20 01:37:58;;;;;;;2.28;1.00;;;12.10;99.90;;;;;;5036064;28;20044;-77
2023/09/20 01:40:26;;;;;;;3.13;0.95;;;12.10;99.90;;;;;;5038082;28;20120;-78
2023/09/20 01:42:52;;;;;;;3.50;1.20;;;12.10;99.90;;;;;;5035071;28;20022;-77
2023/09/20 01:45:19;;;;;;;4.38;1.55;;;12.10;99.90;;;;;;5018564;28;20029;-77
2023/09/20 01:47:50;;;;;;;1.77;1.05;;;12.00;99.90;;;;;;5020053;28;20378;-77
2023/09/20 01:50:19;;;;;;;;;;;12.00;99.90;;;;;;5021138;28;20068;-77
2023/09/20 01:52:49;;;;;;;3.22;1.10;;;11.90;99.90;;;;;;5038518;28;20328;-77
2023/09/20 01:55:17;;;;;;;3.03;1.08;;;11.90;99.90;;;;;;5038365;28;20022;-77
2023/09/20 01:57:46;;;;;;;2.35;1.20;;;11.80;99.90;;;;;;5037342;28;20039;-77
2023/09/20 02:00:22;;;;;;;2.83;1.05;;;11.90;99.90;;;;;;5028389;28;20025;-77
2023/09/20 02:02:57;;;;;;;3.13;1.10;;;11.90;99.90;;;;;;5020775;28;20026;-77
2023/09/20 02:05:26;;;;;;;2.25;1.00;;;11.80;99.90;;;;;;5026194;28;20017;-77
2023/09/20 02:07:55;;;;;;;2.63;1.25;;;11.90;99.90;;;;;;5038940;28;20021;-77
2023/09/20 02:10:21;;;;;;;3.65;1.15;;;11.90;99.90;;;;;;5039431;28;20033;-78
2023/09/20 02:12:53;;;;;;;3.67;1.15;;;11.80;99.90;;;;;;5036678;28;20029;-77
2023/09/20 02:15:19;;;;;;;2.35;1.20;;;11.90;99.90;;;;;;5037702;28;20075;-78
2023/09/20 02:17:45;;;;;;;2.33;1.02;;;11.90;99.90;;;;;;5032849;28;20025;-78
2023/09/20 02:20:13;;;;;;;2.35;0.98;;;11.80;99.90;;;;;;5039431;28;20060;-78
2023/09/20 02:22:39;;;;;;;1.95;1.20;;;11.80;99.90;;;;;;5037410;28;20021;-77
2023/09/20 02:25:11;;;;;;;3.30;1.33;;;11.80;99.90;;;;;;5018897;28;20030;-77
2023/09/20 02:27:38;;;;;;;;;;;11.80;99.90;;;;;;5018601;28;20026;-78
2023/09/20 02:30:04;;;;;;;2.00;1.23;;;11.80;99.90;;;;;;5022062;28;20371;-77
2023/09/20 02:32:31;;;;;;;3.45;1.80;;;11.70;99.90;;;;;;5024047;28;20121;-77
2023/09/20 02:34:57;;;;;;;3.58;2.00;;;11.70;99.90;;;;;;5019728;28;20065;-77
2023/09/20 02:37:23;;;;;;;5.13;2.22;;;11.60;99.90;;;;;;5036605;28;20096;-77
2023/09/20 02:39:49;;;;;;;5.30;2.22;;;11.70;99.90;;;;;;5037986;28;20057;-77
2023/09/20 02:42:14;;;;;;;4.40;1.73;;;11.60;99.90;;;;;;5022479;28;20065;-77
2023/09/20 02:44:40;;;;;;;3.95;2.30;;;11.60;99.90;;;;;;5028418;28;20033;-77
2023/09/20 02:47:07;;;;;;;5.63;2.55;;;11.60;99.90;;;;;;5017993;28;20088;-78
2023/09/20 02:49:33;;;;;;;3.25;1.98;;;11.50;99.90;;;;;;5034578;28;20112;-77
2023/09/20 02:51:58;;;;;;;3.25;1.58;;;11.50;99.90;;;;;;5037241;28;20088;-77
2023/09/20 02:54:25;;;;;;;3.72;1.65;;;11.40;99.90;;;;;;5022012;28;20022;-77
2023/09/20 02:56:52;;;;;;;2.50;1.60;;;11.40;99.90;;;;;;5016816;28;20038;-77
2023/09/20 02:59:20;;;;;;;3.85;1.38;;;11.40;99.90;;;;;;5030884;28;20497;-78
2023/09/20 03:01:49;;;;;;;3.10;1.67;;;11.40;99.90;;;;;;5035790;28;20108;-78
2023/09/20 03:04:15;;;;;;;3.58;1.67;;;11.40;99.90;;;;;;5035569;28;20503;-77
2023/09/20 03:06:44;;;;;;;4.18;1.77;;;11.50;99.90;;;;;;5031576;28;20033;-77
2023/09/20 03:09:10;;;;;;;4.10;1.80;;;11.50;99.90;;;;;;5037312;28;20029;-78
2023/09/20 03:11:37;;;;;;;4.05;1.75;;;11.60;99.90;;;;;;5036588;28;20508;-77
2023/09/20 03:14:08;;;;;;;3.40;1.90;;;11.60;99.90;;;;;;5020783;28;20482;-78
2023/09/20 03:16:34;;;;;;;3.42;2.10;;;11.60;99.90;;;;;;5037962;28;20076;-77
2023/09/20 03:19:01;;;;;;;3.67;1.88;;;11.50;99.90;;;;;;5029551;28;20061;-77
2023/09/20 03:21:28;;;;;;;2.92;1.70;;;11.50;99.90;;;;;;5034634;28;20033;-77
2023/09/20 03:23:55;;;;;;;5.57;2.10;;;11.50;99.90;;;;;;5034502;28;20031;-77
2023/09/20 03:26:21;;;;;;;3.38;2.17;;;11.50;99.90;;;;;;5017760;28;20398;-77
2023/09/20 03:28:48;;;;;;;2.92;1.73;;;11.50;99.90;;;;;;5022947;28;20038;-77
2023/09/20 03:31:15;;;;;;;6.05;2.42;;;11.60;99.90;;;;;;5037050;28;20478;-78
2023/09/20 03:33:42;;;;;;;2.70;1.83;;;11.60;99.90;;;;;;5019771;28;20049;-78
2023/09/20 03:36:15;;;;;;;2.40;1.58;;;11.60;99.90;;;;;;5030313;28;20037;-77
2023/09/20 03:38:41;;;;;;;2.92;1.90;;;11.60;99.90;;;;;;5035356;28;20120;-77
2023/09/20 03:41:07;;;;;;;2.08;1.45;;;11.70;99.90;;;;;;5017618;28;20121;-78
2023/09/20 03:43:33;;;;;;;2.22;1.42;;;11.70;99.90;;;;;;5017038;28;20034;-77
2023/09/20 03:46:01;;;;;;;2.35;1.40;;;11.70;99.90;;;;;;5017243;28;20053;-77
2023/09/20 03:48:27;;;;;;;1.80;1.10;;;11.70;99.90;;;;;;5011255;28;20063;-77
2023/09/20 03:50:53;;;;;;;2.25;1.30;;;11.70;99.90;;;;;;5017131;28;20029;-77
2023/09/20 03:53:18;;;;;;;3.15;1.48;;;11.70;99.90;;;;;;5021375;28;20059;-77
2023/09/20 03:55:46;;;;;;;2.65;1.50;;;11.70;99.90;;;;;;5017949;28;20022;-77
2023/09/20 03:58:11;;;;;;;3.60;1.30;;;11.70;99.90;;;;;;5027569;28;20040;-77
2023/09/20 04:00:38;;;;;;;1.90;1.20;;;11.70;99.90;;;;;;5035670;28;20105;-77
2023/09/20 04:03:05;;;;;;;2.55;1.20;;;11.70;99.90;;;;;;5030508;28;20030;-77
2023/09/20 04:05:33;;;;;;;1.77;1.13;;;11.70;99.90;;;;;;5037474;28;20030;-78
2023/09/20 04:08:00;;;;;;;2.30;1.30;;;11.80;99.90;;;;;;5028352;28;20437;-77
2023/09/20 04:10:26;;;;;;;3.33;1.48;;;11.80;99.90;;;;;;5028412;28;20101;-77
2023/09/20 04:12:52;;;;;;;3.13;1.70;;;11.70;99.90;;;;;;5036290;28;20033;-77
2023/09/20 04:15:18;;;;;;;3.38;1.60;;;11.70;99.90;;;;;;5036037;28;20091;-78
2023/09/20 04:17:43;;;;;;;3.53;1.55;;;11.70;99.90;;;;;;5031086;28;20131;-77
2023/09/20 04:20:11;;;;;;;2.63;1.67;;;11.70;99.90;;;;;;5034670;28;20041;-77
2023/09/20 04:22:42;;;;;;;2.60;1.70;;;11.70;99.90;;;;;;5027291;28;20544;-78
2023/09/20 04:25:10;;;;;;;2.58;1.50;;;11.70;99.90;;;;;;5028747;28;20067;-78
2023/09/20 04:27:36;;;;;;;2.35;1.45;;;11.60;99.90;;;;;;5034906;28;20025;-78
2023/09/20 04:30:03;;;;;;;5.40;1.40;;;11.50;99.90;;;;;;5029749;28;20033;-78
2023/09/20 04:32:29;;;;;;;2.15;1.40;;;11.50;99.90;;;;;;5033829;28;20041;-78
2023/09/20 04:34:56;;;;;;;3.22;1.58;;;11.50;99.90;;;;;;5023946;28;20038;-78
2023/09/20 04:37:23;;;;;;;2.50;1.40;;;11.50;99.90;;;;;;5024015;28;20660;-77
2023/09/20 04:39:49;;;;;;;2.78;1.30;;;11.50;99.90;;;;;;5024632;28;20017;-78
2023/09/20 04:42:15;;;;;;;3.05;1.45;;;11.50;99.90;;;;;;5037236;28;20025;-78
2023/09/20 04:44:41;;;;;;;2.08;1.20;;;11.60;99.90;;;;;;5030688;28;20026;-78
2023/09/20 04:47:07;;;;;;;4.25;1.33;;;11.50;99.90;;;;;;5021756;28;20037;-77
2023/09/20 04:49:33;;;;;;;2.63;1.17;;;11.50;99.90;;;;;;5029002;28;20045;-78
2023/09/20 04:52:00;;;;;;;2.63;1.27;;;11.50;99.90;;;;;;5038361;28;20126;-77
2023/09/20 04:54:27;;;;;;;3.05;1.30;;;11.40;99.90;;;;;;5038282;28;20022;-78
2023/09/20 04:56:53;;;;;;;3.25;1.33;;;11.30;99.90;;;;;;5038991;28;20041;-78
2023/09/20 04:59:19;;;;;;;2.47;1.40;;;11.30;99.90;;;;;;5040323;28;20025;-78
2023/09/20 05:01:45;;;;;;;2.53;1.42;;;11.30;99.90;;;;;;5040804;28;20100;-78
2023/09/20 05:04:13;;;;;;;3.30;1.35;;;11.20;99.90;;;;;;5039019;28;20056;-78
2023/09/20 05:06:42;;;;;;;2.60;1.40;;;11.10;99.90;;;;;;5040160;28;20032;-78
2023/09/20 05:09:09;;;;;;;2.33;1.25;;;11.00;99.90;;;;;;5039799;28;20025;-78
2023/09/20 05:11:35;;;;;;;2.60;1.30;;;11.00;99.90;;;;;;5039515;28;20033;-78
2023/09/20 05:14:01;;;;;;;2.05;1.10;;;10.90;99.90;;;;;;5040021;28;20521;-78
2023/09/20 05:16:27;;;;;;;1.80;0.82;;;10.80;99.90;;;;;;5038441;28;20029;-78
2023/09/20 05:18:53;;;;;;;4.25;1.40;;;10.80;99.90;;;;;;5039615;28;20026;-78
2023/09/20 05:21:18;;;;;;;2.60;1.50;;;10.80;99.90;;;;;;5039895;28;20022;-78
2023/09/20 05:23:44;;;;;;;2.30;1.15;;;10.70;99.90;;;;;;5038694;28;20026;-78
2023/09/20 05:26:10;;;;;;;2.92;1.50;;;10.70;99.90;;;;;;5039677;28;20116;-78
2023/09/20 05:28:36;;;;;;;2.53;1.42;;;10.70;99.90;;;;;;5039987;28;20021;-78
2023/09/20 05:31:05;;;;;;;1.95;0.90;;;10.60;99.90;;;;;;5039721;28;20041;-78
2023/09/20 05:33:34;;;;;;;2.33;1.30;;;10.60;99.90;;;;;;5040293;28;20025;-78
2023/09/20 05:36:00;;;;;;;3.40;1.30;;;10.50;99.90;;;;;;5038419;28;20390;-78
2023/09/20 05:38:26;;;;;;;3.92;2.05;;;10.50;99.90;;;;;;5037909;28;20124;-78
2023/09/20 05:40:52;;;;;;;2.50;1.35;;;10.50;99.90;;;;;;5040815;28;20028;-78
2023/09/20 05:43:17;;;;;;;2.15;1.20;;;10.50;99.90;;;;;;5037082;28;20045;-78
2023/09/20 05:45:43;;;;;;;5.03;2.15;;;10.50;99.90;;;;;;5038704;28;20025;-77
2023/09/20 05:48:12;;;;;;;3.55;1.85;;;10.50;99.90;;;;;;5039485;28;20037;-77
2023/09/20 05:50:40;;;;;;;3.08;1.60;;;10.50;99.90;;;;;;5038420;28;20029;-77
2023/09/20 05:53:10;;;;;;;3.20;1.60;;;10.50;99.90;;;;;;5039144;28;20021;-77
2023/09/20 05:55:40;;;;;;;4.53;1.97;;;10.50;99.90;;;;;;5038028;28;20040;-77
2023/09/20 05:58:06;;;;;;;3.35;2.00;;;10.50;99.90;;;;;;5037487;28;20390;-77
2023/09/20 06:00:34;;;;;;;4.47;2.58;;;10.50;99.90;;;;;;5034956;28;20525;-78
2023/09/20 06:03:03;;;;;;;4.22;2.15;;;10.60;99.90;;;;;;5034918;28;20052;-78
2023/09/20 06:05:32;;;;;;;3.47;2.17;;;10.70;99.90;;;;;;5036436;28;20496;-78
2023/09/20 06:07:57;;;;;;;3.83;2.10;;;10.70;99.90;;;;;;5036251;28;20030;-78
2023/09/20 06:10:23;;;;;;;6.05;3.30;;;10.80;99.90;;;;;;5036911;28;20060;-78
2023/09/20 06:12:52;;;;;;;4.80;2.92;;;11.00;99.90;;;;;;5039367;28;20413;-78
2023/09/20 06:15:18;;;;;;;6.18;2.85;;;11.10;99.90;;;;;;5040409;28;20089;-79
2023/09/20 06:17:48;;;;;;;6.30;3.15;;;11.20;99.90;;;;;;5040139;28;20112;-78
2023/09/20 06:20:20;;;;;;;4.20;2.45;;;11.30;99.90;;;;;;5040690;28;20025;-78
2023/09/20 06:22:49;;;;;;;4.82;2.75;;;11.40;99.90;;;;;;5040987;28;20072;-79
2023/09/20 06:25:19;;;;;;;4.60;2.08;;;11.50;99.90;;;;;;5041139;28;20018;-79
2023/09/20 06:27:45;;;;;;;4.13;2.60;;;11.50;99.90;;;;;;5041271;28;20022;-79
2023/09/20 06:30:14;;;;;;;4.90;2.58;;;11.60;99.90;;;;;;5046686;28;20083;-79
2023/09/20 06:32:41;;;;;;;6.82;2.67;;;11.70;99.90;;;;;;5044289;28;20025;-78
2023/09/20 06:35:10;;;;;;;5.13;3.13;;;11.80;99.90;;;;;;5036374;28;20026;-77
2023/09/20 06:37:38;;;;;;;6.75;3.25;;;11.90;99.90;;;;;;5034135;28;20033;-77
2023/09/20 06:40:15;;;;;;;7.50;3.80;;;11.90;99.90;;;;;;5033548;28;20024;-77
2023/09/20 06:42:40;;;;;;;6.50;4.05;;;12.00;99.90;;;;;;5032186;28;20493;-77
2023/09/20 06:45:08;;;;;;;8.30;3.83;;;12.00;99.90;;;;;;5032172;28;20029;-77
2023/09/20 06:47:34;;;;;;;9.07;4.85;;;12.00;99.90;;;;;;5034282;28;20025;-77
2023/09/20 06:50:04;;;;;;;9.50;4.13;;;12.10;99.90;;;;;;5034407;28;20504;-76
2023/09/20 06:52:29;;;;;;;7.82;4.30;;;12.10;99.90;;;;;;5034390;28;20427;-77
2023/09/20 06:54:55;;;;;;;7.72;3.85;;;12.20;99.90;;;;;;5034782;28;20037;-77
2023/09/20 06:57:22;;;;;;;8.25;4.20;;;12.20;99.90;;;;;;5035827;28;20044;-77
2023/09/20 06:59:51;;;;;;;10.70;4.68;;;12.30;99.90;;;;;;5035939;28;20029;-77
2023/09/20 07:02:17;;;;;;;6.43;3.85;;;12.30;99.90;;;;;;5035813;28;20048;-77
2023/09/20 07:04:43;;;;;;;6.15;3.60;;;12.30;99.90;;;;;;5036315;28;20025;-77
2023/09/20 07:07:10;;;;;;;6.53;4.60;;;12.40;99.90;;;;;;5036034;28;20080;-77
2023/09/20 07:09:37;;;;;;;8.98;4.40;;;12.40;99.90;;;;;;5035748;28;20462;-77
2023/09/20 07:12:03;;;;;;;7.47;4.20;;;12.50;99.90;;;;;;5033777;28;20033;-76
2023/09/20 07:14:31;;;;;;;11.18;5.20;;;12.50;99.90;;;;;;5031905;28;20025;-75
2023/09/20 07:17:03;;;;;;;8.80;4.85;;;12.50;99.90;;;;;;5028762;28;20053;-76
2023/09/20 07:19:29;;;;;;;8.52;5.45;;;12.50;99.90;;;;;;5029127;28;20024;-76
2023/09/20 07:21:56;;;;;;;6.65;4.63;;;12.50;99.90;;;;;;5031885;28;20369;-75
2023/09/20 07:24:24;;;;;;;7.03;4.22;;;12.60;99.90;;;;;;5030831;28;20021;-76
2023/09/20 07:26:58;;;;;;;7.53;4.55;;;12.60;99.90;;;;;;5033050;28;20025;-76
2023/09/20 07:29:24;;;;;;;6.15;3.97;;;12.70;99.90;;;;;;5033448;28;20036;-76
2023/09/20 07:31:50;;;;;;;7.05;4.13;;;12.70;99.90;;;;;;5032958;28;20071;-76
2023/09/20 07:34:19;;;;;;;6.47;4.75;;;12.80;99.90;;;;;;5034737;28;20033;-76
2023/09/20 07:36:49;;;;;;;7.75;5.47;;;12.80;99.90;;;;;;5036946;28;20026;-75
2023/09/20 07:39:21;;;;;;;10.90;6.82;;;12.80;99.90;;;;;;5036693;28;20026;-76
2023/09/20 07:41:53;;;;;;;10.05;6.50;;;12.80;99.90;;;;;;5037005;28;20509;-76
2023/09/20 07:44:24;;;;;;;11.63;7.43;;;12.90;99.90;;;;;;5037192;28;20471;-76
2023/09/20 07:46:52;;;;;;;9.13;6.35;;;12.90;99.90;;;;;;5036671;28;20116;-76
2023/09/20 07:49:19;;;;;;;9.38;6.18;;;13.00;99.90;;;;;;5036994;28;20080;-76
2023/09/20 07:51:45;;;;;;;7.95;5.97;;;13.10;99.90;;;;;;5019314;28;20393;-75
2023/09/20 07:54:14;;;;;;;8.32;6.05;;;13.20;99.90;;;;;;5034498;28;20026;-76
2023/09/20 07:56:43;;;;;;;7.55;5.03;;;13.30;99.90;;;;;;5036469;28;20029;-76
2023/09/20 07:59:09;;;;;;;7.32;4.47;;;13.40;99.90;;;;;;5033765;28;20049;-76
2023/09/20 08:01:35;;;;;;;8.20;4.68;;;13.50;99.90;;;;;;5036360;28;20030;-76
2023/09/20 08:04:06;;;;;;;8.57;5.30;;;13.60;99.90;;;;;;5036446;28;20079;-76
2023/09/20 08:06:33;;;;;;;6.82;4.55;;;13.70;99.90;;;;;;5036768;28;20406;-76
2023/09/20 08:08:59;;;;;;;6.50;4.30;;;13.80;99.90;;;;;;5036206;28;20394;-76
2023/09/20 08:11:26;;;;;;;6.97;4.68;;;13.90;99.90;;;;;;5036338;28;20025;-76
2023/09/20 08:13:53;;;;;;;5.18;3.88;;;14.00;99.90;;;;;;5036540;28;20428;-76
2023/09/20 08:16:20;;;;;;;8.18;5.38;;;14.10;99.90;;;;;;5036118;28;20061;-76
2023/09/20 08:21:32;;;;;;;6.75;4.13;;;14.40;99.90;;;;;;5036264;28;20025;-76
2023/09/20 09:00:21;;;;;;;3.83;2.53;;;16.30;99.90;;;;;;5034752;28;20116;-76
2023/09/20 09:02:53;;;;;;;3.38;2.40;;;16.40;99.90;;;;;;5032277;28;20088;-76
2023/09/20 09:05:20;;;;;;;7.00;3.03;;;16.50;99.90;;;;;;5035348;28;20071;-76
2023/09/20 09:07:47;;;;;;;4.18;2.40;;;16.70;99.90;;;;;;5035361;28;20029;-76
2023/09/20 09:10:13;;;;;;;4.95;2.40;;;16.80;99.90;;;;;;5035065;28;20374;-76
2023/09/20 09:12:40;;;;;;;4.32;2.92;;;17.00;99.90;;;;;;5034645;28;20128;-76
2023/09/20 09:15:08;;;;;;;4.55;2.80;;;17.10;99.90;;;;;;5034103;28;20036;-76
2023/09/20 09:17:41;;;;;;;6.22;3.10;;;17.30;99.90;;;;;;5032020;28;20071;-76
2023/09/20 09:20:11;;;;;;;4.65;2.40;;;17.40;99.90;;;;;;5033279;28;20018;-76
2023/09/20 09:22:41;;;;;;;5.77;2.40;;;17.50;99.90;;;;;;5032477;28;20018;-76
2023/09/20 09:25:16;;;;;;;4.25;2.70;;;17.60;99.90;;;;;;5032413;28;20022;-76
2023/09/20 09:27:43;;;;;;;4.20;2.13;;;17.70;99.90;;;;;;5031525;28;20026;-77
2023/09/20 09:30:13;;;;;;;4.80;2.40;;;17.90;99.90;;;;;;5034712;28;20048;-78
2023/09/20 09:32:40;;;;;;;4.07;2.03;;;18.00;99.90;;;;;;5036549;28;20386;-79
2023/09/20 09:35:07;;;;;;;4.95;3.08;;;18.20;99.90;;;;;;5035206;28;20017;-76
2023/09/20 09:37:35;;;;;;;4.18;2.10;;;18.30;99.90;;;;;;5032849;28;20378;-76
2023/09/20 09:40:04;;;;;;;4.78;2.30;;;18.40;99.90;;;;;;5037299;28;20025;-78
2023/09/20 09:42:30;;;;;;;3.97;2.25;;;18.50;99.90;;;;;;5036385;28;20017;-78
2023/09/20 09:44:56;;;;;;;3.65;2.20;;;18.60;99.90;;;;;;5037262;28;20060;-78
2023/09/20 09:47:24;;;;;;;3.97;2.40;;;18.70;99.90;;;;;;5039201;28;20033;-79
2023/09/20 09:49:52;;;;;;;6.82;3.20;;;18.80;99.90;;;;;;5039493;28;20489;-78
2023/09/20 09:52:18;;;;;;;4.80;2.53;;;19.00;99.90;;;;;;5035370;28;20485;-78
2023/09/20 09:54:47;;;;;;;4.25;2.90;;;19.10;99.90;;;;;;5033900;28;20052;-78
2023/09/20 09:57:13;;;;;;;4.57;2.60;;;19.20;99.90;;;;;;5030349;28;20381;-77
2023/09/20 09:59:42;;;;;;;3.83;1.90;;;19.30;99.90;;;;;;5035263;28;20389;-77
2023/09/20 10:02:18;;;;;;;3.15;2.17;;;19.30;99.90;;;;;;5033145;28;20083;-78
2023/09/20 10:04:56;;;;;;;4.65;1.70;;;19.50;99.90;;;;;;5034244;28;20044;-77
2023/09/20 10:07:27;;;;;;;4.22;2.75;;;19.60;99.90;;;;;;5031957;28;20064;-78
2023/09/20 10:09:57;;;;;;;3.63;2.40;;;19.70;99.90;;;;;;5031559;28;20088;-78
2023/09/20 10:12:24;;;;;;;5.18;1.63;;;19.80;99.90;;;;;;5037988;28;20132;-78
2023/09/20 10:14:51;;;;;;;2.95;2.00;;;19.90;99.90;;;;;;5034875;28;20029;-77
2023/09/20 10:17:20;;;;;;;2.85;1.63;;;20.00;99.90;;;;;;5034812;28;20021;-78
2023/09/20 10:19:50;;;;;;;3.38;1.77;;;20.00;99.90;;;;;;5034052;28;20104;-78
2023/09/20 10:22:23;;;;;;;3.00;2.00;;;20.10;99.90;;;;;;5032557;28;20139;-78
2023/09/20 10:25:00;;;;;;;3.22;2.10;;;20.20;99.90;;;;;;5034705;28;20473;-78
2023/09/20 10:27:28;;;;;;;3.58;1.77;;;20.40;99.90;;;;;;5034982;28;20021;-78
2023/09/20 10:30:14;;;;;;;2.72;1.50;;;20.50;99.90;;;;;;5033703;28;20116;-78
2023/09/20 10:32:48;;;;;;;2.42;1.50;;;20.60;99.90;;;;;;5036174;28;20032;-78
2023/09/20 10:35:21;;;;;;;1.92;1.23;;;20.70;99.90;;;;;;5029188;28;21006;-79
2023/09/20 10:38:25;;;;;;;3.72;1.48;;;20.70;99.90;;;;;;5031110;28;20393;-77
2023/09/20 10:41:00;;;;;;;3.85;1.60;;;20.80;99.90;;;;;;5029020;28;20109;-78
2023/09/20 10:43:34;;;;;;;3.28;1.77;;;21.00;99.90;;;;;;5032740;28;20018;-77
2023/09/20 10:46:03;;;;;;;4.45;1.65;;;21.10;99.90;;;;;;5032617;28;20048;-78
2023/09/20 10:48:29;;;;;;;3.33;1.50;;;21.20;99.90;;;;;;5029134;28;20370;-78
2023/09/20 10:50:57;;;;;;;2.80;1.23;;;21.20;99.90;;;;;;5033463;28;20037;-78
2023/09/20 10:53:52;;;;;;;2.53;1.25;;;21.20;99.90;;;;;;5033935;28;20079;-78
2023/09/20 10:56:53;;;;;;;3.53;1.35;;;21.50;99.90;;;;;;5028574;28;20509;-79
2023/09/20 10:59:25;;;;;;;3.08;1.27;;;21.90;99.90;;;;;;5034942;28;20026;-79
2023/09/20 11:01:58;;;;;;;4.03;1.52;;;22.40;99.90;;;;;;5036083;28;20556;-79
2023/09/20 11:04:24;;;;;;;2.50;1.10;;;22.80;99.90;;;;;;5036825;28;20026;-78
2023/09/20 11:06:54;;;;;;;1.85;0.90;;;23.10;99.90;;;;;;5036586;28;20520;-79
2023/09/20 11:09:24;;;;;;;2.10;1.00;;;23.40;99.90;;;;;;5036028;28;20488;-79
2023/09/20 11:11:53;;;;;;;1.92;1.30;;;23.70;99.90;;;;;;5033192;28;20103;-77
2023/09/20 11:14:19;;;;;;;2.10;1.20;;;23.90;99.90;;;;;;5026782;28;20034;-77
2023/09/20 11:16:45;;;;;;;2.88;1.20;;;24.00;99.90;;;;;;5029494;28;20033;-77
2023/09/20 11:19:11;;;;;;;2.10;1.20;;;24.20;99.60;;;;;;5032634;28;20036;-78
2023/09/20 11:21:41;;;;;;;2.13;1.40;;;24.20;99.40;;;;;;5034904;28;20025;-79
2023/09/20 11:24:11;;;;;;;2.53;1.40;;;24.30;99.50;;;;;;5034493;28;20057;-79
2023/09/20 11:26:40;;;;;;;2.53;1.02;;;24.30;99.50;;;;;;5025168;28;20022;-79
2023/09/20 11:29:09;;;;;;;2.10;1.20;;;24.40;98.80;;;;;;5035688;28;20034;-79
2023/09/20 11:31:35;;;;;;;1.83;0.90;;;24.50;98.50;;;;;;5036282;28;20416;-79
2023/09/20 11:34:03;;;;;;;2.30;0.95;;;24.50;98.60;;;;;;5032197;28;20022;-80
2023/09/20 11:36:29;;;;;;;2.15;1.27;;;24.60;98.20;;;;;;5013953;28;20033;-78
2023/09/20 11:38:55;;;;;;;2.10;1.20;;;24.40;97.90;;;;;;5030145;28;20033;-77
2023/09/20 11:41:24;;;;;;;2.10;1.10;;;24.40;99.20;;;;;;5029998;28;20075;-77
2023/09/20 11:43:56;;;;;;;2.50;1.30;;;24.50;99.00;;;;;;5029159;28;20025;-77
2023/09/20 11:46:26;;;;;;;4.03;1.17;;;24.60;98.70;;;;;;5033202;28;20025;-78
2023/09/20 11:49:00;;;;;;;2.95;1.60;;;24.70;99.10;;;;;;5033570;28;20033;-79
2023/09/20 11:51:33;;;;;;;2.42;1.30;;;24.80;99.10;;;;;;5034606;28;20029;-81
2023/09/20 11:54:00;;;;;;;3.08;1.73;;;24.90;98.60;;;;;;5025795;28;20045;-79
2023/09/20 11:56:31;;;;;;;5.28;1.95;;;25.00;98.30;;;;;;5027551;28;20168;-80
2023/09/20 11:58:59;;;;;;;2.20;1.52;;;25.10;98.30;;;;;;5023313;28;20381;-80
2023/09/20 12:01:29;;;;;;;3.10;1.75;;;25.10;97.40;;;;;;5024352;28;20021;-79
2023/09/20 12:03:55;;;;;;;3.42;2.00;;;25.20;97.50;;;;;;5026958;28;20022;-80
2023/09/20 12:06:21;;;;;;;2.97;1.73;;;25.20;98.60;;;;;;5005564;28;20078;-79
2023/09/20 12:08:48;;;;;;;2.55;1.65;;;25.30;98.20;;;;;;5026421;28;20040;-80
2023/09/20 12:11:14;;;;;;;4.60;1.52;;;25.40;98.20;;;;;;5010848;28;20091;-78
2023/09/20 12:13:43;;;;;;;1.65;1.10;;;25.50;97.30;;;;;;5027321;28;20125;-79
2023/09/20 12:16:09;;;;;;;2.30;1.23;;;25.50;95.50;;;;;;5023038;28;20692;-79
2023/09/20 12:18:38;;;;;;;1.92;1.30;;;25.50;96.20;;;;;;5026124;28;20029;-79
2023/09/20 12:21:08;;;;;;;2.05;1.23;;;25.50;96.60;;;;;;5011130;28;20112;-79
2023/09/20 12:23:40;;;;;;;2.58;1.33;;;25.50;95.50;;;;;;5030865;28;20049;-81
2023/09/20 12:26:08;;;;;;;4.97;1.48;;;25.50;96.50;;;;;;5028680;28;20037;-80
2023/09/20 12:28:34;;;;;;;4.07;1.30;;;25.50;98.30;;;;;;5027462;28;20033;-80
2023/09/20 12:31:00;;;;;;;2.17;1.27;;;25.60;99.70;;;;;;5028990;28;20037;-78
2023/09/20 12:33:27;;;;;;;2.78;1.42;;;25.70;98.40;;;;;;5028874;28;20040;-80
2023/09/20 12:35:54;;;;;;;2.33;1.30;;;25.80;96.10;;;;;;5022889;28;20088;-78
2023/09/20 12:38:20;;;;;;;2.35;1.52;;;25.80;97.10;;;;;;5027206;28;20038;-77
2023/09/20 12:40:47;;;;;;;2.75;1.70;;;25.90;97.80;;;;;;5025868;28;20033;-76
2023/09/20 12:43:15;;;;;;;2.60;1.10;;;26.00;98.50;;;;;;5027583;28;20022;-75
2023/09/20 12:45:43;;;;;;;3.75;1.17;;;26.10;96.10;;;;;;5028626;28;20045;-78
2023/09/20 12:48:09;;;;;;;2.42;1.35;;;26.10;96.00;;;;;;5026308;28;20038;-78
2023/09/20 12:50:37;;;;;;;2.10;1.17;;;26.20;95.60;;;;;;5021269;28;20037;-78
2023/09/20 12:53:05;;;;;;;2.63;1.52;;;26.30;94.90;;;;;;5017727;28;20026;-78
2023/09/20 12:55:35;;;;;;;4.10;1.40;;;26.30;96.40;;;;;;5025892;28;20060;-78
2023/09/20 12:58:01;;;;;;;2.10;1.20;;;26.30;96.80;;;;;;5021848;28;20470;-76
2023/09/20 13:00:27;;;;;;;2.40;1.35;;;26.50;96.40;;;;;;5023510;28;20117;-77
2023/09/20 13:02:53;;;;;;;2.58;1.13;;;26.50;94.60;;;;;;5023348;28;20029;-75
2023/09/20 13:05:19;;;;;;;3.22;1.02;;;26.40;94.70;;;;;;5022426;28;20394;-76
2023/09/20 13:07:44;;;;;;;2.38;1.42;;;26.30;95.60;;;;;;5028777;28;20459;-75
2023/09/20 13:12:38;;;;;;;1.88;1.10;;;26.20;95.70;;;;;;5075351;22;20052;-74
2023/09/20 13:15:04;;;;;;;6.43;1.77;;;26.30;95.90;;;;;;5053577;28;20029;-73
2023/09/20 13:17:31;;;;;;;3.60;1.45;;;26.50;96.70;;;;;;5047677;28;20427;-74
2023/09/20 13:19:56;;;;;;;4.50;1.45;;;26.60;94.20;;;;;;5046848;23;20434;-78
2023/09/20 13:22:23;;;;;;;2.10;1.15;;;26.70;94.30;;;;;;5015604;28;20022;-78
2023/09/20 13:24:50;;;;;;;2.15;1.23;;;26.70;94.80;;;;;;5011464;28;20030;-77
2023/09/20 13:27:19;;;;;;;2.03;1.17;;;26.90;95.10;;;;;;5015456;28;20029;-78
2023/09/20 13:29:44;;;;;;;1.63;1.20;;;27.00;94.10;;;;;;5014502;28;20433;-78
2023/09/20 13:32:10;;;;;;;2.75;1.42;;;27.10;93.60;;;;;;5014930;28;20079;-78
2023/09/20 13:34:36;;;;;;;2.65;1.35;;;27.00;92.70;;;;;;5014119;28;20498;-78